Aviation Digital Data Service (ADDS)

Output produced by METARs form (2354 UTC 30 November 2022)
found at http://aviationweather.gov/metar/data/
 
KLVS 302329Z 0100/0124 17018G26KT P6SM BKN200 
     FM010300 20014G22KT P6SM FEW200 
     FM011700 22023G32KT P6SM SCT200